Portada
METAR-TAF:

METAR-TAF

Aeroports :

Weipa, Austràlia

latitud: 12-40-43S, longitud: 141-55-31E, altitud: 19 m

Observació

L'informe es va fer fa 55 minuts, a les 06:00 UTC
Vent 10 kt del Oest
Temperatura 32°C
Humitat 56%
Pressió 1007 hPa
Visibilitat 10 km o més

METAR: YBWP 240600Z AUTO 26010KT 9999 // NCD 32/22 Q1007

Hora: 16:55 (06:55 UTC)


TAF: manca

Observacions i pronòstics meteorològics de més de 4000 aeroports (METAR i TAF).

Les estacions disponibles són els punts grocs i vermells al mapa.

Posi el ratolí al punt desitjat per veure el nom de l'estació.

Feu clic per veure les observacions i els pronòstics meteorològics.

Per canviar el mapa: feu clic els botons verds amb una creu de color negre per apropar; al botó verd amb un guió per allunyar la imatge; o en les fletxes verdes per a mapes adjacents.


METAR-TAF: